Terminal Aerodrome Forecast
Issued by NWS

Home | Current Version | Previous Version | Text Only | Print | Product List | Glossary On
Versions: 1 2 3 4 5 6 7 8 9 10 11 12 13 14 15 16
000
FTUS46 KMTR 281700
TAFSNS
TAF
KSNS 281740Z 2818/0118 VRB05KT P6SM -SHRA SCT018 BKN045 OVC060
      TEMPO 2818/2822 +SHRA BKN025
     FM282200 27010KT P6SM -SHRA SCT020 BKN045 OVC060
      TEMPO 2822/0102 +SHRA BKN025
     FM010200 29005KT P6SM VCSH SCT025 BKN050
     FM010400 11003KT P6SM BKN025=

USA.gov is the U.S. government's official web portal to all federal, state and local government web resources and services.